Time;durP1;ratioP1;P1;durP2;ratioP2;P2;SDS_P1;SDS_P2;PMS_P1;PMS_P2;Temp;Humidity;BMP_temperature;BMP_pressure;BME280_temperature;BME280_humidity;BME280_pressure;Samples;Min_cycle;Max_cycle;Signal;HPM_P1;HPM_P2
2021/04/11 03:21:42;;;;;;;8.75;1.90;;;;;;;12.20;50.94;100530.00;5295931;26;20076;-84
2021/04/11 03:24:09;;;;;;;3.62;1.52;;;;;;;12.20;51.38;100525.59;5280292;27;20518;-84
2021/04/11 04:54:36;;;;;;;4.78;1.60;;;;;;;12.02;50.02;100568.78;5281637;26;20064;-84
2021/04/11 04:57:14;;;;;;;3.08;1.70;;;;;;;11.97;49.84;100570.62;5321677;27;20478;-86
2021/04/11 04:59:51;;;;;;;6.68;2.08;;;;;;;11.81;50.98;100580.34;5299913;27;20441;-85
2021/04/11 05:38:39;;;;;;;6.03;3.08;;;;;;;11.52;52.08;100598.12;5315670;27;20068;-84
2021/04/11 05:41:23;;;;;;;4.25;2.10;;;;;;;12.03;51.08;100599.53;5301375;27;20114;-83
2021/04/11 05:44:10;;;;;;;7.70;2.20;;;;;;;12.35;50.20;100598.34;5300572;27;20052;-84
2021/04/11 05:46:41;;;;;;;8.27;2.40;;;;;;;12.43;50.28;100607.06;5300871;27;20132;-83
2021/04/11 05:49:15;;;;;;;2.87;1.62;;;;;;;12.57;49.01;100603.41;5320375;27;20473;-84
2021/04/11 05:51:49;;;;;;;7.72;2.83;;;;;;;12.71;49.46;100596.22;5320275;27;20061;-84
2021/04/11 05:54:24;;;;;;;4.20;1.55;;;;;;;12.86;47.82;100601.31;5303445;27;20088;-84
2021/04/11 05:57:03;;;;;;;2.65;2.00;;;;;;;13.00;47.18;100605.53;5323706;27;20032;-84
2021/04/11 05:59:43;;;;;;;2.87;1.35;;;;;;;12.95;45.71;100605.59;5323852;27;20055;-86
2021/04/11 06:02:22;;;;;;;7.07;1.62;;;;;;;13.38;44.93;100598.03;5304947;27;20500;-85
2021/04/11 06:04:55;;;;;;;7.32;2.05;;;;;;;13.37;44.30;100603.31;5323709;27;20481;-85
2021/04/11 06:07:28;;;;;;;5.78;2.20;;;;;;;12.52;46.84;100605.22;5322214;27;20063;-84
2021/04/11 06:10:12;;;;;;;7.93;1.95;;;;;;;12.74;46.19;100604.09;5301073;27;20065;-85
2021/04/11 06:13:03;;;;;;;7.00;2.42;;;;;;;12.65;45.57;100615.63;5321032;27;20060;-83
2021/04/11 06:15:34;;;;;;;4.55;2.25;;;;;;;12.50;45.59;100614.03;5321307;27;20049;-83
2021/04/11 06:18:04;;;;;;;3.25;2.15;;;;;;;12.83;44.62;100598.72;5320795;27;20048;-84
2021/04/11 06:20:31;;;;;;;4.45;1.83;;;;;;;12.51;45.37;100593.81;5301125;27;20053;-84
2021/04/11 06:23:17;;;;;;;3.97;1.55;;;;;;;12.62;45.05;100593.69;5320740;27;20065;-83
2021/04/11 06:26:08;;;;;;;6.95;2.22;;;;;;;12.77;44.73;100593.53;5320820;27;20561;-84
2021/04/11 06:28:52;;;;;;;3.97;2.17;;;;;;;12.79;44.07;100597.00;5320748;27;20060;-84
2021/04/11 06:31:29;;;;;;;3.80;1.55;;;;;;;12.79;43.21;100599.63;5320801;27;20045;-89
2021/04/11 06:34:00;;;;;;;4.12;1.90;;;;;;;12.80;42.36;100600.53;5301041;27;20513;-84
2021/04/11 06:36:44;;;;;;;4.75;1.73;;;;;;;12.96;42.14;100597.66;5320755;27;20713;-84
2021/04/11 08:06:56;;;;;;;3.55;1.58;;;;;;;14.97;39.40;100670.25;5284976;26;20076;-82
2021/04/11 08:10:11;;;;;;;6.65;1.95;;;;;;;15.26;38.52;100666.16;5322008;27;20060;-82
2021/04/11 08:12:46;;;;;;;3.92;1.70;;;;;;;15.28;38.30;100664.37;5303056;27;20066;-83
2021/04/11 08:15:19;;;;;;;2.92;1.33;;;;;;;15.54;37.91;100656.72;5322477;27;20063;-83
2021/04/11 08:18:01;;;;;;;4.43;1.77;;;;;;;15.55;37.67;100668.19;5302385;27;20061;-83
2021/04/11 08:21:01;;;;;;;5.70;2.28;;;;;;;15.22;38.16;100671.50;5301949;27;20533;-82
2021/04/11 08:23:30;;;;;;;10.40;2.00;;;;;;;15.07;37.99;100670.97;5303332;27;20068;-83
2021/04/11 08:26:17;;;;;;;3.47;2.03;;;;;;;15.38;37.58;100671.19;5302171;27;20112;-83
2021/04/11 08:29:04;;;;;;;7.30;1.55;;;;;;;15.06;38.15;100670.09;5303627;27;20028;-82
2021/04/11 08:32:07;;;;;;;3.15;1.50;;;;;;;15.20;38.02;100678.59;5301247;27;20063;-83
2021/04/11 08:34:59;;;;;;;6.03;2.00;;;;;;;15.13;38.41;100670.84;5302084;27;20100;-83
2021/04/11 09:00:58;;;;;;;4.40;1.70;;;;;;;15.94;36.77;100671.72;5295410;26;20083;-83
2021/04/11 09:04:02;;;;;;;5.50;2.37;;;;;;;16.08;36.70;100679.38;5301474;27;20123;-84
2021/04/11 09:06:51;;;;;;;6.75;2.22;;;;;;;16.10;36.74;100672.25;5320690;27;20077;-84
2021/04/11 09:09:30;;;;;;;3.60;1.65;;;;;;;16.40;35.80;100665.31;5265334;27;20192;-83
2021/04/11 09:12:20;;;;;;;5.50;1.83;;;;;;;16.35;35.91;100672.50;5301377;27;20072;-85
2021/04/11 09:15:24;;;;;;;4.87;1.40;;;;;;;16.58;35.78;100667.47;5320675;27;20116;-84
2021/04/11 09:18:20;;;;;;;3.60;1.77;;;;;;;16.40;35.71;100667.97;5301451;27;20060;-84
2021/04/11 09:21:15;;;;;;;5.05;1.92;;;;;;;16.85;35.71;100662.38;5321685;27;20116;-84
2021/04/11 09:23:54;;;;;;;5.95;2.00;;;;;;;16.69;35.57;100666.34;5321066;27;20136;-84
2021/04/11 09:26:38;;;;;;;3.75;2.05;;;;;;;16.19;35.74;100657.91;5321273;27;20122;-84
2021/04/11 09:29:26;;;;;;;3.97;1.73;;;;;;;16.53;35.61;100663.19;5301984;27;20744;-84
2021/04/11 10:40:23;;;;;;;3.17;1.70;;;;;;;16.60;34.97;100666.59;5318862;26;20331;-82
2021/04/11 10:43:29;;;;;;;2.37;1.65;;;;;;;16.23;35.28;100678.97;5301976;27;20122;-83
2021/04/11 10:46:03;;;;;;;3.70;2.00;;;;;;;16.49;35.44;100685.41;5320618;27;20436;-83
2021/04/11 10:48:40;;;;;;;4.80;2.55;;;;;;;16.84;35.19;100684.53;5300789;27;20710;-83
2021/04/11 10:51:36;;;;;;;5.50;1.80;;;;;;;16.53;35.80;100693.28;5320509;27;20061;-84
2021/04/11 10:54:37;;;;;;;4.50;2.33;;;;;;;16.56;35.85;100685.25;5320587;27;20439;-83
2021/04/11 10:57:36;;;;;;;3.15;2.05;;;;;;;16.65;35.70;100675.28;5321468;27;20089;-83
2021/04/11 11:00:03;;;;;;;4.65;1.70;;;;;;;16.46;35.62;100682.84;5278259;27;20422;-84
2021/04/11 11:02:41;;;;;;;7.07;2.65;;;;;;;16.50;35.62;100669.47;5320985;27;20092;-83
2021/04/11 11:05:28;;;;;;;4.37;1.77;;;;;;;16.39;35.96;100673.31;5320370;27;20532;-83
2021/04/11 11:08:16;;;;;;;4.68;2.10;;;;;;;16.84;35.63;100673.91;5320375;27;20407;-83
2021/04/11 11:11:01;;;;;;;4.53;1.98;;;;;;;16.77;35.31;100670.56;5320445;27;20084;-83
2021/04/11 11:13:43;;;;;;;4.62;2.00;;;;;;;17.12;35.43;100665.16;5320904;27;20067;-82
2021/04/11 11:16:22;;;;;;;3.25;1.98;;;;;;;17.50;34.84;100653.44;5320659;27;20053;-83
2021/04/11 11:19:16;;;;;;;5.80;2.28;;;;;;;17.61;34.35;100661.06;5301207;27;20579;-82
2021/04/11 11:21:56;;;;;;;4.53;1.90;;;;;;;17.06;34.84;100660.03;5320492;27;20465;-82
2021/04/11 11:24:41;;;;;;;;;;;;;;;17.09;35.09;100655.53;5294401;27;168594;-83
2021/04/11 11:27:50;;;;;;;6.18;2.47;;;;;;;17.38;34.45;100661.75;5321895;27;19987;-84
2021/04/11 11:30:42;;;;;;;5.12;2.15;;;;;;;17.54;34.00;100654.22;5284140;27;20086;-83
2021/04/11 11:33:30;;;;;;;4.22;2.10;;;;;;;17.44;34.27;100657.16;5301041;27;20128;-83
2021/04/11 11:36:33;;;;;;;4.07;1.75;;;;;;;17.55;33.87;100654.16;5301092;27;20029;-83
2021/04/11 11:39:34;;;;;;;4.50;2.28;;;;;;;17.46;34.20;100651.78;5321008;27;20120;-83
2021/04/11 11:42:06;;;;;;;4.40;2.25;;;;;;;17.66;33.80;100646.72;5321043;27;20045;-84
2021/04/11 11:44:46;;;;;;;4.35;2.30;;;;;;;17.96;33.45;100648.50;5320932;27;20045;-83
2021/04/11 11:47:24;;;;;;;6.68;2.47;;;;;;;18.07;32.99;100631.28;5302194;27;20113;-83
2021/04/11 11:50:01;;;;;;;5.15;2.45;;;;;;;18.47;32.71;100639.69;5301868;27;20128;-83
2021/04/11 11:53:08;;;;;;;4.72;2.72;;;;;;;18.52;32.01;100645.72;5320737;27;20074;-83
2021/04/11 11:55:59;;;;;;;2.65;1.87;;;;;;;18.79;31.70;100639.44;5267876;27;20044;-83
2021/04/11 11:58:35;;;;;;;8.77;3.20;;;;;;;18.95;32.24;100630.94;5322395;27;20087;-84
2021/04/11 12:23:31;;;;;;;4.37;2.30;;;;;;;19.12;30.56;100595.66;5284912;26;20065;-83
2021/04/11 12:26:20;;;;;;;3.33;2.00;;;;;;;18.89;30.77;100589.44;5304000;27;20110;-83
2021/04/11 12:28:50;;;;;;;;;;;;;;;19.02;30.41;100584.50;5301494;27;20106;-83
2021/04/11 12:31:32;;;;;;;5.90;3.17;;;;;;;19.02;30.45;100595.16;5300659;27;19989;-82
2021/04/11 12:34:14;;;;;;;3.85;1.80;;;;;;;18.73;31.05;100589.09;5321369;27;20057;-82
2021/04/11 12:37:20;;;;;;;3.25;1.95;;;;;;;18.97;30.86;100586.47;5301270;27;20056;-83
2021/04/11 12:39:47;;;;;;;3.75;2.12;;;;;;;18.69;31.16;100590.13;5320692;27;20056;-82
2021/04/11 12:42:22;;;;;;;5.15;2.15;;;;;;;18.72;31.92;100582.03;5301469;27;20069;-82
2021/04/11 12:45:15;;;;;;;3.40;2.08;;;;;;;18.28;32.52;100579.16;5320817;27;20694;-82
2021/04/11 12:47:57;;;;;;;5.25;1.83;;;;;;;18.42;32.67;100575.16;5320829;27;20108;-83
2021/04/11 12:50:38;;;;;;;6.07;2.40;;;;;;;18.37;32.41;100568.19;5301877;27;20112;-83
2021/04/11 12:53:23;;;;;;;5.18;2.95;;;;;;;18.79;32.68;100572.03;5320507;27;20061;-82
2021/04/11 12:55:56;;;;;;;3.65;2.20;;;;;;;18.56;33.03;100565.75;5319906;27;20066;-82
2021/04/11 12:58:35;;;;;;;4.15;2.25;;;;;;;18.89;32.47;100553.97;5300704;27;20053;-83
2021/04/11 13:01:14;;;;;;;5.55;2.40;;;;;;;19.20;32.09;100551.84;5319996;27;20076;-82
2021/04/11 13:03:53;;;;;;;5.57;2.08;;;;;;;19.34;31.70;100553.97;5300223;27;20096;-83
2021/04/11 13:06:38;;;;;;;4.45;1.90;;;;;;;19.61;31.44;100554.66;5320662;27;20033;-83
2021/04/11 13:09:23;;;;;;;3.00;1.92;;;;;;;19.53;31.09;100548.78;5320259;27;20464;-83
2021/04/11 13:12:14;;;;;;;5.85;2.22;;;;;;;19.91;31.21;100543.66;5300307;27;20057;-84
2021/04/11 13:15:18;;;;;;;4.45;1.90;;;;;;;19.87;31.01;100550.94;5320374;27;20065;-83
2021/04/11 13:18:01;;;;;;;4.25;1.95;;;;;;;19.77;30.82;100543.41;5321049;27;20711;-83
2021/04/11 13:20:35;;;;;;;6.85;1.95;;;;;;;19.98;30.88;100538.97;5320392;27;20097;-83
2021/04/11 13:23:39;;;;;;;5.10;2.55;;;;;;;19.73;30.65;100532.84;5320437;27;20613;-83
2021/04/11 13:26:33;;;;;;;4.80;2.17;;;;;;;19.88;30.43;100531.38;5247606;27;20703;-83
2021/04/11 13:29:05;;;;;;;5.43;2.50;;;;;;;19.79;30.36;100534.38;5321174;27;20077;-83
2021/04/11 13:31:44;;;;;;;4.03;2.20;;;;;;;20.17;29.49;100535.44;5301277;27;20148;-83
2021/04/11 13:34:34;;;;;;;4.80;2.03;;;;;;;20.33;30.42;100529.44;5300536;27;20401;-83
2021/04/11 13:37:10;;;;;;;3.28;2.20;;;;;;;19.85;29.98;100518.13;5320407;27;20061;-84
2021/04/11 13:39:38;;;;;;;3.53;2.20;;;;;;;20.57;29.50;100511.50;5300551;27;20073;-83
2021/04/11 13:42:16;;;;;;;4.93;2.20;;;;;;;20.81;28.98;100501.50;5320242;27;20049;-82
2021/04/11 14:27:40;;;;;;;4.68;2.00;;;;;;;20.64;28.46;100480.91;5289804;26;20689;-81
2021/04/11 14:30:33;;;;;;;4.30;2.15;;;;;;;21.00;28.16;100470.31;5321719;27;20117;-82
2021/04/11 14:33:33;;;;;;;3.97;1.73;;;;;;;20.58;28.76;100479.38;5304701;27;20085;-82
2021/04/11 14:36:13;;;;;;;3.75;1.73;;;;;;;19.81;29.61;100479.22;5320620;27;20474;-82
2021/04/11 14:38:49;;;;;;;4.43;1.90;;;;;;;19.91;29.69;100469.91;5301586;27;20056;-81
2021/04/11 14:41:37;;;;;;;3.22;2.22;;;;;;;19.43;30.01;100468.31;5320687;27;20073;-82
2021/04/11 14:44:07;;;;;;;7.72;2.22;;;;;;;19.80;29.69;100469.50;5320641;27;20124;-82
2021/04/11 14:46:40;;;;;;;3.75;2.10;;;;;;;19.58;30.02;100474.81;5320679;27;20465;-83
2021/04/11 14:49:10;;;;;;;3.95;1.85;;;;;;;19.15;30.94;100463.28;5321302;27;20342;-82
2021/04/11 14:52:04;;;;;;;3.95;2.05;;;;;;;19.66;30.71;100454.09;5320743;27;20124;-82
2021/04/11 14:54:48;;;;;;;5.03;1.55;;;;;;;20.42;30.05;100451.63;5321908;27;20116;-83
2021/04/11 14:58:02;;;;;;;4.65;2.25;;;;;;;20.67;29.41;100453.19;5300824;27;20115;-82
2021/04/11 15:00:37;;;;;;;5.03;2.17;;;;;;;20.76;29.00;100447.44;5297223;27;20108;-83
2021/04/11 15:03:14;;;;;;;3.40;1.87;;;;;;;20.98;28.37;100441.94;5320388;27;20069;-82
2021/04/11 15:06:13;;;;;;;3.92;2.45;;;;;;;21.13;28.13;100456.38;5322022;27;20338;-83
2021/04/11 15:09:05;;;;;;;4.95;1.80;;;;;;;21.03;28.00;100453.25;5283836;27;20075;-82
2021/04/11 15:11:41;;;;;;;3.67;2.10;;;;;;;21.08;27.52;100453.91;5321613;27;20420;-83
2021/04/11 15:14:18;;;;;;;3.22;1.80;;;;;;;21.01;27.86;100452.47;5321009;27;20136;-82
2021/04/11 15:17:00;;;;;;;3.70;2.03;;;;;;;21.13;28.13;100453.69;5320306;27;20076;-82
2021/04/11 15:19:52;;;;;;;4.78;2.28;;;;;;;20.67;28.47;100447.84;5300576;27;20060;-82
2021/04/11 15:22:33;;;;;;;3.75;1.85;;;;;;;20.54;29.06;100445.75;5320967;27;20427;-82
2021/04/11 15:25:20;;;;;;;3.75;1.83;;;;;;;20.57;28.48;100447.44;5320838;27;20090;-82
2021/04/11 15:27:59;;;;;;;2.65;1.70;;;;;;;19.96;29.43;100449.22;5300639;27;20037;-82
2021/04/11 15:30:30;;;;;;;4.12;1.83;;;;;;;20.92;28.95;100448.44;5320896;27;20075;-82
2021/04/11 15:32:56;;;;;;;6.43;2.10;;;;;;;21.15;28.30;100454.47;5300822;27;20121;-82
2021/04/11 15:36:00;;;;;;;5.22;1.83;;;;;;;21.47;28.09;100455.56;5301162;27;20067;-82
2021/04/11 15:38:36;;;;;;;5.62;2.25;;;;;;;21.42;27.99;100449.63;5300164;27;20087;-82
2021/04/11 15:41:07;;;;;;;4.57;1.85;;;;;;;21.10;28.40;100447.53;5300786;27;20060;-82
2021/04/11 15:43:53;;;;;;;3.62;1.62;;;;;;;21.16;28.43;100450.87;5321205;27;20079;-82
2021/04/11 15:46:42;;;;;;;5.72;2.03;;;;;;;21.14;28.29;100450.06;5321343;27;20064;-82
2021/04/11 15:49:20;;;;;;;3.60;1.90;;;;;;;21.09;28.10;100440.47;5320394;27;20053;-82
2021/04/11 15:51:58;;;;;;;3.58;1.77;;;;;;;20.83;27.98;100451.56;5300463;27;20072;-82
2021/04/11 15:54:39;;;;;;;5.97;2.83;;;;;;;20.83;28.52;100440.87;5320544;27;20067;-82
2021/04/11 15:57:28;;;;;;;3.40;1.83;;;;;;;20.71;28.93;100444.13;5304186;27;20086;-82
2021/04/11 16:00:12;;;;;;;5.50;2.45;;;;;;;20.57;29.48;100444.75;5320117;27;20733;-81
2021/04/11 16:03:00;;;;;;;5.15;2.00;;;;;;;20.82;28.84;100436.44;5320473;27;20186;-82
2021/04/11 16:05:39;;;;;;;3.40;1.60;;;;;;;20.51;29.56;100443.22;5300580;27;20054;-83
2021/04/11 16:08:09;;;;;;;4.60;2.22;;;;;;;20.74;29.34;100436.84;5300686;27;20123;-82
2021/04/11 16:10:40;;;;;;;4.87;2.28;;;;;;;20.24;30.04;100431.13;5300550;27;20092;-82
2021/04/11 16:13:22;;;;;;;5.30;2.00;;;;;;;20.62;29.40;100438.28;5300245;27;20069;-82
2021/04/11 16:16:14;;;;;;;4.40;2.30;;;;;;;20.79;29.33;100431.25;5320435;27;20136;-82
2021/04/11 16:18:51;;;;;;;8.20;2.10;;;;;;;20.74;29.18;100431.50;5320133;27;20045;-82
2021/04/11 16:21:42;;;;;;;4.47;2.42;;;;;;;20.63;29.17;100444.47;5320849;27;20371;-82
2021/04/11 16:24:12;;;;;;;4.40;1.90;;;;;;;20.04;30.13;100440.87;5320047;27;20122;-82
2021/04/11 16:26:47;;;;;;;8.68;1.77;;;;;;;20.12;30.47;100436.09;5320827;27;20462;-82
2021/04/11 16:29:40;;;;;;;3.78;1.83;;;;;;;19.71;31.68;100437.91;5319896;27;20049;-82
2021/04/11 16:32:41;;;;;;;3.90;1.33;;;;;;;19.90;31.79;100436.16;5320019;27;20466;-82
2021/04/11 16:35:18;;;;;;;4.40;1.87;;;;;;;19.81;32.17;100435.69;5319955;27;20061;-82
2021/04/11 16:38:12;;;;;;;5.82;1.87;;;;;;;19.95;31.88;100431.50;5300070;27;20057;-83
2021/04/11 16:41:03;;;;;;;4.35;1.67;;;;;;;19.48;32.45;100429.03;5320928;27;20037;-83
2021/04/11 16:44:16;;;;;;;3.62;2.15;;;;;;;18.95;33.36;100425.94;5320157;27;20120;-82
2021/04/11 16:46:58;;;;;;;4.10;1.92;;;;;;;19.04;33.15;100441.53;5320289;27;20078;-83
2021/04/11 16:49:40;;;;;;;3.60;2.10;;;;;;;18.94;33.25;100432.16;5320130;27;20049;-82
2021/04/11 16:52:15;;;;;;;4.43;2.62;;;;;;;19.05;33.16;100437.94;5320300;27;20540;-83
2021/04/11 16:55:00;;;;;;;3.10;1.50;;;;;;;18.94;33.18;100437.47;5320298;27;20085;-82
2021/04/11 16:57:51;;;;;;;7.40;3.53;;;;;;;19.09;33.22;100441.31;5320198;27;20124;-83
2021/04/11 17:00:47;;;;;;;5.45;2.95;;;;;;;18.73;33.33;100434.75;5300409;27;20120;-83
2021/04/11 17:03:15;;;;;;;4.72;2.70;;;;;;;18.68;33.08;100441.13;5319845;27;20112;-82
2021/04/11 17:06:09;;;;;;;6.57;1.92;;;;;;;18.55;33.22;100441.59;5300089;27;20483;-83
2021/04/11 17:08:38;;;;;;;5.55;2.20;;;;;;;18.67;32.93;100442.94;5300892;27;20699;-82
2021/04/11 17:11:24;;;;;;;3.97;2.17;;;;;;;18.89;32.81;100439.47;5300121;27;20049;-82
2021/04/11 17:14:13;;;;;;;5.60;1.77;;;;;;;18.21;33.32;100441.16;5319792;27;20065;-82
2021/04/11 17:16:53;;;;;;;3.20;1.60;;;;;;;18.14;32.90;100435.16;5319916;27;20140;-82
2021/04/11 17:19:32;;;;;;;4.10;1.83;;;;;;;18.19;32.48;100432.34;5300102;27;20071;-84
2021/04/11 17:22:18;;;;;;;4.62;1.98;;;;;;;17.75;32.76;100432.12;5300101;27;20474;-83
2021/04/11 17:24:53;;;;;;;3.75;1.60;;;;;;;17.48;32.79;100435.66;5320601;27;20027;-83
2021/04/11 17:27:37;;;;;;;4.22;1.40;;;;;;;17.12;32.88;100439.50;5300233;27;20375;-82
2021/04/11 17:30:28;;;;;;;3.87;1.70;;;;;;;17.06;32.88;100447.69;5320261;27;20080;-83
2021/04/11 17:33:13;;;;;;;8.73;2.90;;;;;;;16.98;33.03;100438.19;5320016;27;20052;-83
2021/04/11 17:35:48;;;;;;;4.70;1.83;;;;;;;16.88;33.11;100433.19;5319554;27;20108;-82
2021/04/11 17:38:26;;;;;;;5.82;1.83;;;;;;;17.04;33.03;100445.09;5319958;27;20052;-83
2021/04/11 17:41:04;;;;;;;;;;;;;;;16.96;33.29;100447.97;5320514;27;20647;-84
2021/04/11 17:43:44;;;;;;;2.67;1.70;;;;;;;16.91;33.56;100449.91;5300557;27;19968;-84
2021/04/11 17:46:10;;;;;;;;;;;;;;;16.78;33.85;100454.72;5319941;27;20061;-84
2021/04/11 17:48:59;;;;;;;5.80;2.25;;;;;;;16.86;33.80;100451.84;5320182;27;20013;-84
2021/04/11 17:51:46;;;;;;;6.30;3.22;;;;;;;16.75;33.90;100443.31;5319854;27;20056;-84
2021/04/11 17:54:21;;;;;;;6.45;2.03;;;;;;;16.35;34.42;100434.75;5319890;27;20789;-84
2021/04/11 17:57:22;;;;;;;3.75;2.00;;;;;;;16.57;34.14;100444.72;5300075;27;20124;-85
2021/04/11 17:59:59;;;;;;;4.85;2.28;;;;;;;16.41;34.40;100449.59;5319867;27;20119;-84
2021/04/11 18:02:40;;;;;;;4.78;1.98;;;;;;;16.55;34.16;100449.19;5300709;27;20083;-84
2021/04/11 18:05:22;;;;;;;6.25;1.92;;;;;;;16.54;34.26;100466.03;5320935;27;20079;-85
2021/04/11 18:08:12;;;;;;;5.45;2.45;;;;;;;16.45;34.62;100464.53;5320997;27;20049;-84
2021/04/11 18:10:44;;;;;;;;;;;;;;;16.46;35.01;100465.38;5301094;27;20451;-83
2021/04/11 18:13:26;;;;;;;6.85;2.28;;;;;;;16.55;35.06;100468.63;5301499;27;19979;-84
2021/04/11 18:16:01;;;;;;;6.10;1.58;;;;;;;16.68;35.02;100468.28;5301165;27;20127;-84
2021/04/11 18:19:06;;;;;;;3.87;1.85;;;;;;;16.71;35.03;100465.53;5300760;27;20454;-84
2021/04/11 18:21:58;;;;;;;3.22;1.58;;;;;;;16.80;34.84;100478.56;5320782;27;20057;-83
2021/04/11 18:24:24;;;;;;;6.47;2.10;;;;;;;17.02;34.40;100479.62;5300588;27;20106;-83
2021/04/11 18:27:05;;;;;;;7.12;2.97;;;;;;;16.61;35.31;100488.81;5300284;27;20738;-83
2021/04/11 18:29:53;;;;;;;3.90;2.47;;;;;;;16.54;35.60;100493.44;5320478;27;20063;-82
2021/04/11 18:32:44;;;;;;;6.20;3.30;;;;;;;16.60;35.47;100487.06;5300742;27;20123;-84
2021/04/11 18:35:50;;;;;;;3.15;2.12;;;;;;;16.78;35.07;100485.69;5300829;27;20061;-83
2021/04/11 18:38:27;;;;;;;5.37;2.30;;;;;;;16.51;35.65;100488.22;5316352;27;20061;-83
2021/04/11 18:40:53;;;;;;;5.18;2.95;;;;;;;16.16;36.61;100499.81;5300523;27;20045;-84
2021/04/11 18:43:33;;;;;;;3.62;2.17;;;;;;;16.42;36.10;100495.56;5320545;27;20469;-84
2021/04/11 18:46:18;;;;;;;;;;;;;;;16.33;36.03;100494.03;5320706;27;20415;-83
2021/04/11 18:49:00;;;;;;;4.18;2.37;;;;;;;16.19;36.50;100494.41;5300155;27;19964;-83
2021/04/11 18:51:57;;;;;;;6.35;2.33;;;;;;;16.70;35.54;100492.97;5320605;27;20559;-84
2021/04/11 18:54:51;;;;;;;4.20;2.17;;;;;;;16.83;35.16;100499.69;5320333;27;20064;-84
2021/04/11 18:57:34;;;;;;;4.05;1.95;;;;;;;16.49;35.80;100489.16;5300493;27;20147;-83
2021/04/11 19:00:21;;;;;;;6.70;1.85;;;;;;;16.68;35.65;100495.69;5320364;27;20364;-83
2021/04/11 19:02:53;;;;;;;5.15;2.15;;;;;;;16.50;35.90;100504.16;5301477;27;20024;-83
2021/04/11 19:05:27;;;;;;;5.00;2.42;;;;;;;16.45;36.10;100506.94;5320263;27;20064;-84
2021/04/11 19:08:09;;;;;;;3.80;2.08;;;;;;;16.19;36.78;100507.66;5320397;27;20073;-84
2021/04/11 19:10:58;;;;;;;3.22;1.77;;;;;;;16.38;36.36;100518.63;5320315;27;20103;-84
2021/04/11 19:13:52;;;;;;;5.25;2.28;;;;;;;16.20;37.06;100527.94;5320273;27;20536;-83
2021/04/11 19:16:33;;;;;;;7.20;2.17;;;;;;;16.46;36.60;100529.91;5320092;27;20072;-84
2021/04/11 19:19:11;;;;;;;4.70;2.28;;;;;;;16.06;37.51;100523.03;5320325;27;20060;-83
2021/04/11 19:22:31;;;;;;;3.95;1.90;;;;;;;15.56;38.70;100529.56;5320316;27;20362;-84
2021/04/11 19:25:35;;;;;;;3.83;2.17;;;;;;;15.57;38.93;100524.25;5241846;27;20084;-84
2021/04/11 19:28:14;;;;;;;5.22;2.15;;;;;;;15.50;38.82;100521.75;5301020;27;20418;-85
2021/04/11 19:31:21;;;;;;;6.37;1.77;;;;;;;15.52;38.80;100520.81;5301027;27;20130;-84
2021/04/11 19:34:12;;;;;;;3.67;2.17;;;;;;;15.81;37.95;100520.12;5320354;27;20419;-84
2021/04/11 19:36:52;;;;;;;6.32;2.65;;;;;;;15.92;37.90;100509.28;5320577;27;20108;-84
2021/04/11 19:39:34;;;;;;;3.70;1.95;;;;;;;15.84;37.97;100513.91;5320259;27;20509;-83
2021/04/11 19:42:13;;;;;;;6.10;2.10;;;;;;;15.83;37.87;100517.47;5320754;27;20088;-83
2021/04/11 19:45:01;;;;;;;5.37;2.33;;;;;;;15.81;37.97;100512.19;5300354;27;20431;-84
2021/04/11 19:47:30;;;;;;;4.80;2.30;;;;;;;15.56;38.20;100511.91;5320334;27;20699;-84
2021/04/11 19:50:09;;;;;;;6.60;2.95;;;;;;;15.51;38.69;100512.94;5300300;27;20081;-84
2021/04/11 19:52:59;;;;;;;6.10;2.72;;;;;;;15.62;38.35;100513.56;5320341;27;20061;-84
2021/04/11 19:55:25;;;;;;;5.03;2.00;;;;;;;15.34;38.84;100519.50;5301051;27;20543;-83
2021/04/11 19:58:01;;;;;;;4.40;2.35;;;;;;;15.50;38.28;100519.13;5300630;27;20061;-84
2021/04/11 20:00:33;;;;;;;4.60;2.10;;;;;;;15.72;37.70;100520.38;5300355;27;20084;-84
2021/04/11 20:03:16;;;;;;;4.12;2.10;;;;;;;15.75;37.53;100524.72;5320805;27;20747;-85
2021/04/11 20:06:14;;;;;;;6.20;2.60;;;;;;;15.77;37.36;100525.56;5320654;27;20056;-84
2021/04/11 20:08:47;;;;;;;6.03;2.47;;;;;;;15.94;37.15;100527.78;5300872;27;20079;-85
2021/04/11 20:11:41;;;;;;;3.70;2.17;;;;;;;15.84;37.17;100527.16;5320458;27;20454;-85
2021/04/11 20:14:23;;;;;;;5.22;2.42;;;;;;;15.81;37.32;100527.22;5321737;27;20120;-85
2021/04/11 20:17:14;;;;;;;3.35;2.35;;;;;;;15.94;37.23;100527.78;5301147;27;20463;-83
2021/04/11 20:20:08;;;;;;;6.10;2.62;;;;;;;15.94;37.50;100528.63;5320612;27;20066;-84
2021/04/11 20:23:00;;;;;;;5.47;2.85;;;;;;;16.18;36.98;100532.44;5301883;27;20509;-85
2021/04/11 20:25:55;;;;;;;4.53;2.33;;;;;;;16.25;37.16;100526.06;5319958;27;20133;-84
2021/04/11 20:28:49;;;;;;;5.97;2.50;;;;;;;16.10;37.83;100523.81;5320646;27;20528;-85
2021/04/11 20:31:18;;;;;;;4.78;2.37;;;;;;;16.20;38.00;100521.78;5302094;27;20049;-84
2021/04/11 20:33:51;;;;;;;5.45;2.67;;;;;;;15.60;39.54;100513.56;5321102;27;20379;-84
2021/04/11 20:36:29;;;;;;;5.10;2.67;;;;;;;15.34;39.75;100515.97;5301485;27;20060;-84
2021/04/11 20:39:15;;;;;;;8.35;3.65;;;;;;;15.28;40.10;100508.19;5301127;27;20473;-84
2021/04/11 20:41:59;;;;;;;3.95;2.35;;;;;;;15.66;39.11;100512.56;5301118;27;20045;-85
2021/04/11 20:44:46;;;;;;;6.68;2.65;;;;;;;15.62;39.41;100511.78;5321400;27;20053;-85
2021/04/11 20:47:51;;;;;;;5.75;2.70;;;;;;;15.61;39.28;100512.66;5301947;27;20061;-85
2021/04/11 20:50:37;;;;;;;4.85;2.58;;;;;;;15.96;38.06;100510.94;5320594;27;20506;-85
2021/04/11 20:53:13;;;;;;;6.03;2.67;;;;;;;15.96;38.47;100515.34;5248035;27;20135;-85
2021/04/11 20:56:21;;;;;;;7.43;2.22;;;;;;;16.16;38.11;100518.34;5302608;27;20075;-84
2021/04/11 20:59:25;;;;;;;6.32;2.70;;;;;;;16.11;37.70;100520.25;5321821;27;20099;-85
2021/04/11 21:01:54;;;;;;;4.93;2.60;;;;;;;16.28;37.53;100519.81;5302528;27;20080;-84
2021/04/11 21:04:44;;;;;;;5.55;2.53;;;;;;;15.91;38.64;100518.13;5321953;27;20065;-84
2021/04/11 21:07:27;;;;;;;6.03;2.92;;;;;;;16.42;37.26;100517.66;5321655;27;20104;-85
2021/04/11 21:10:16;;;;;;;5.85;2.53;;;;;;;16.33;37.44;100521.41;5302213;27;20122;-84
2021/04/11 21:13:21;;;;;;;4.45;2.83;;;;;;;16.41;37.13;100517.69;5305218;27;20636;-85
2021/04/11 21:16:06;;;;;;;4.47;2.60;;;;;;;16.13;37.34;100506.06;5302556;27;20049;-85
2021/04/11 21:18:49;;;;;;;4.93;2.35;;;;;;;16.41;37.02;100513.22;5302091;27;20143;-85
2021/04/11 21:21:43;;;;;;;3.35;2.22;;;;;;;16.45;37.45;100512.25;5302201;27;20106;-85
2021/04/11 21:24:36;;;;;;;6.50;2.40;;;;;;;16.27;38.05;100510.12;5302400;27;20127;-86
2021/04/11 21:27:03;;;;;;;7.20;2.75;;;;;;;16.47;37.17;100518.41;5322630;27;20406;-85
2021/04/11 21:29:54;;;;;;;5.55;1.85;;;;;;;16.38;37.81;100518.63;5304283;27;20671;-85
2021/04/11 21:32:35;;;;;;;6.57;2.42;;;;;;;16.43;37.13;100518.50;5322665;27;20403;-85
2021/04/11 21:35:01;;;;;;;4.85;2.58;;;;;;;16.61;36.31;100512.69;5303428;27;20075;-84
2021/04/11 21:37:43;;;;;;;4.15;2.47;;;;;;;16.56;36.70;100520.78;5303652;27;20022;-85
2021/04/11 21:40:21;;;;;;;5.25;2.25;;;;;;;16.42;37.01;100528.25;5324679;27;20116;-85
2021/04/11 21:43:08;;;;;;;4.70;2.58;;;;;;;16.28;37.21;100525.09;5304676;27;20057;-85
2021/04/11 21:45:59;;;;;;;5.07;2.17;;;;;;;16.41;37.34;100533.59;5325354;27;20108;-86
2021/04/11 21:48:47;;;;;;;4.37;2.47;;;;;;;16.36;37.38;100525.78;5324674;27;20098;-84
2021/04/11 21:51:40;;;;;;;5.60;2.37;;;;;;;16.52;36.93;100523.56;5304328;27;20072;-85
2021/04/11 21:54:09;;;;;;;6.10;2.37;;;;;;;16.50;36.91;100523.62;5304115;27;20202;-85
2021/04/11 21:57:18;;;;;;;4.55;2.03;;;;;;;16.27;37.48;100520.72;5304403;27;20719;-85
2021/04/11 21:59:47;;;;;;;5.57;2.83;;;;;;;16.44;37.01;100515.84;5303741;27;20049;-84
2021/04/11 22:02:25;;;;;;;4.40;2.03;;;;;;;16.48;37.00;100522.78;5323801;27;20026;-85
2021/04/11 22:04:54;;;;;;;5.60;2.37;;;;;;;16.22;38.11;100520.84;5303922;27;20065;-85
2021/04/11 22:07:35;;;;;;;3.95;2.62;;;;;;;16.16;38.47;100526.31;5324412;27;20921;-85
2021/04/11 22:10:34;;;;;;;4.37;2.75;;;;;;;15.66;39.28;100528.44;5305104;27;20072;-85
2021/04/11 22:13:08;;;;;;;4.60;2.37;;;;;;;15.98;38.66;100530.31;5317873;27;20075;-86